sensor_id;sensor_type;location;lat;lon;timestamp;P1;durP1;ratioP1;P2;durP2;ratioP2
4450;SDS011;2238;50.180;9.230;2023-03-14T00:01:58;3.37;;;1.20;;
4450;SDS011;2238;50.180;9.230;2023-03-14T00:04:59;1.07;;;1.07;;
4450;SDS011;2238;50.180;9.230;2023-03-14T00:07:59;1.17;;;1.10;;
4450;SDS011;2238;50.180;9.230;2023-03-14T00:11:07;0.80;;;0.80;;
4450;SDS011;2238;50.180;9.230;2023-03-14T00:14:15;1.40;;;1.30;;
4450;SDS011;2238;50.180;9.230;2023-03-14T00:17:16;1.27;;;1.17;;
4450;SDS011;2238;50.180;9.230;2023-03-14T00:20:17;3.43;;;1.30;;
4450;SDS011;2238;50.180;9.230;2023-03-14T00:23:17;1.10;;;1.00;;
4450;SDS011;2238;50.180;9.230;2023-03-14T00:26:19;1.07;;;1.07;;
4450;SDS011;2238;50.180;9.230;2023-03-14T00:29:21;1.40;;;1.30;;
4450;SDS011;2238;50.180;9.230;2023-03-14T00:32:21;1.60;;;1.50;;
4450;SDS011;2238;50.180;9.230;2023-03-14T00:35:22;2.53;;;1.40;;
4450;SDS011;2238;50.180;9.230;2023-03-14T00:38:22;1.50;;;1.40;;
4450;SDS011;2238;50.180;9.230;2023-03-14T00:41:24;1.40;;;1.30;;
4450;SDS011;2238;50.180;9.230;2023-03-14T00:44:24;1.43;;;1.33;;
4450;SDS011;2238;50.180;9.230;2023-03-14T00:47:25;2.50;;;1.40;;
4450;SDS011;2238;50.180;9.230;2023-03-14T00:50:26;3.07;;;1.50;;
4450;SDS011;2238;50.180;9.230;2023-03-14T00:53:26;2.40;;;1.60;;
4450;SDS011;2238;50.180;9.230;2023-03-14T00:56:27;2.00;;;1.40;;
4450;SDS011;2238;50.180;9.230;2023-03-14T00:59:27;1.60;;;1.40;;
4450;SDS011;2238;50.180;9.230;2023-03-14T01:02:28;1.90;;;1.30;;
4450;SDS011;2238;50.180;9.230;2023-03-14T01:05:28;3.07;;;1.30;;
4450;SDS011;2238;50.180;9.230;2023-03-14T01:08:29;4.37;;;2.33;;
4450;SDS011;2238;50.180;9.230;2023-03-14T01:11:31;4.30;;;1.80;;
4450;SDS011;2238;50.180;9.230;2023-03-14T01:14:33;1.43;;;1.20;;
4450;SDS011;2238;50.180;9.230;2023-03-14T01:17:33;1.53;;;1.40;;
4450;SDS011;2238;50.180;9.230;2023-03-14T01:20:36;2.50;;;1.67;;
4450;SDS011;2238;50.180;9.230;2023-03-14T01:23:37;2.47;;;1.90;;
4450;SDS011;2238;50.180;9.230;2023-03-14T01:26:37;4.10;;;1.40;;
4450;SDS011;2238;50.180;9.230;2023-03-14T01:29:38;3.13;;;1.40;;
4450;SDS011;2238;50.180;9.230;2023-03-14T01:32:39;2.33;;;1.80;;
4450;SDS011;2238;50.180;9.230;2023-03-14T01:35:40;4.23;;;1.30;;
4450;SDS011;2238;50.180;9.230;2023-03-14T01:38:40;2.57;;;1.40;;
4450;SDS011;2238;50.180;9.230;2023-03-14T01:41:41;2.67;;;1.97;;
4450;SDS011;2238;50.180;9.230;2023-03-14T01:47:49;4.50;;;2.80;;
4450;SDS011;2238;50.180;9.230;2023-03-14T01:50:50;3.37;;;1.73;;
4450;SDS011;2238;50.180;9.230;2023-03-14T01:53:51;2.20;;;1.50;;
4450;SDS011;2238;50.180;9.230;2023-03-14T01:57:03;2.40;;;1.30;;
4450;SDS011;2238;50.180;9.230;2023-03-14T02:00:17;3.03;;;1.40;;
4450;SDS011;2238;50.180;9.230;2023-03-14T02:03:20;2.40;;;1.60;;
4450;SDS011;2238;50.180;9.230;2023-03-14T02:06:24;3.10;;;1.40;;
4450;SDS011;2238;50.180;9.230;2023-03-14T02:09:29;2.73;;;1.70;;
4450;SDS011;2238;50.180;9.230;2023-03-14T02:12:30;2.53;;;1.47;;
4450;SDS011;2238;50.180;9.230;2023-03-14T02:15:32;1.57;;;1.33;;
4450;SDS011;2238;50.180;9.230;2023-03-14T02:18:33;2.57;;;1.80;;
4450;SDS011;2238;50.180;9.230;2023-03-14T02:28:09;4.73;;;1.33;;
4450;SDS011;2238;50.180;9.230;2023-03-14T02:31:10;4.50;;;2.30;;
4450;SDS011;2238;50.180;9.230;2023-03-14T02:34:11;3.27;;;1.63;;
4450;SDS011;2238;50.180;9.230;2023-03-14T02:37:12;4.23;;;1.67;;
4450;SDS011;2238;50.180;9.230;2023-03-14T02:40:15;3.40;;;1.97;;
4450;SDS011;2238;50.180;9.230;2023-03-14T02:43:15;3.43;;;1.90;;
4450;SDS011;2238;50.180;9.230;2023-03-14T02:46:18;2.97;;;2.07;;
4450;SDS011;2238;50.180;9.230;2023-03-14T02:49:20;4.40;;;1.50;;
4450;SDS011;2238;50.180;9.230;2023-03-14T02:52:21;4.40;;;2.23;;
4450;SDS011;2238;50.180;9.230;2023-03-14T02:55:22;2.27;;;1.40;;
4450;SDS011;2238;50.180;9.230;2023-03-14T02:58:23;4.33;;;1.80;;
4450;SDS011;2238;50.180;9.230;2023-03-14T03:01:24;4.43;;;2.10;;
4450;SDS011;2238;50.180;9.230;2023-03-14T03:04:24;2.23;;;1.63;;
4450;SDS011;2238;50.180;9.230;2023-03-14T03:07:25;2.03;;;1.60;;
4450;SDS011;2238;50.180;9.230;2023-03-14T03:10:26;3.13;;;1.90;;
4450;SDS011;2238;50.180;9.230;2023-03-14T03:13:27;4.93;;;2.47;;
4450;SDS011;2238;50.180;9.230;2023-03-14T03:16:28;6.03;;;1.70;;
4450;SDS011;2238;50.180;9.230;2023-03-14T03:19:29;3.20;;;1.83;;
4450;SDS011;2238;50.180;9.230;2023-03-14T03:22:29;4.77;;;1.80;;
4450;SDS011;2238;50.180;9.230;2023-03-14T03:25:30;5.63;;;1.70;;
4450;SDS011;2238;50.180;9.230;2023-03-14T03:28:31;4.10;;;2.00;;
4450;SDS011;2238;50.180;9.230;2023-03-14T03:31:32;1.30;;;1.20;;
4450;SDS011;2238;50.180;9.230;2023-03-14T03:34:32;4.50;;;1.60;;
4450;SDS011;2238;50.180;9.230;2023-03-14T03:37:33;3.77;;;1.80;;
4450;SDS011;2238;50.180;9.230;2023-03-14T03:40:34;1.10;;;1.00;;
4450;SDS011;2238;50.180;9.230;2023-03-14T03:43:34;4.83;;;2.30;;
4450;SDS011;2238;50.180;9.230;2023-03-14T03:46:35;2.70;;;1.43;;
4450;SDS011;2238;50.180;9.230;2023-03-14T03:49:35;1.83;;;1.50;;
4450;SDS011;2238;50.180;9.230;2023-03-14T03:52:36;3.30;;;1.67;;
4450;SDS011;2238;50.180;9.230;2023-03-14T03:55:37;1.40;;;1.30;;
4450;SDS011;2238;50.180;9.230;2023-03-14T03:58:37;2.83;;;1.90;;
4450;SDS011;2238;50.180;9.230;2023-03-14T04:01:38;1.90;;;1.57;;
4450;SDS011;2238;50.180;9.230;2023-03-14T04:04:39;5.37;;;1.70;;
4450;SDS011;2238;50.180;9.230;2023-03-14T04:07:40;2.00;;;1.90;;
4450;SDS011;2238;50.180;9.230;2023-03-14T04:10:40;3.90;;;1.90;;
4450;SDS011;2238;50.180;9.230;2023-03-14T04:13:41;3.70;;;1.60;;
4450;SDS011;2238;50.180;9.230;2023-03-14T04:16:41;4.30;;;1.60;;
4450;SDS011;2238;50.180;9.230;2023-03-14T04:19:42;3.50;;;1.70;;
4450;SDS011;2238;50.180;9.230;2023-03-14T04:22:42;2.70;;;1.67;;
4450;SDS011;2238;50.180;9.230;2023-03-14T04:25:43;3.77;;;1.90;;
4450;SDS011;2238;50.180;9.230;2023-03-14T04:28:44;1.90;;;1.70;;
4450;SDS011;2238;50.180;9.230;2023-03-14T04:31:44;3.03;;;1.77;;
4450;SDS011;2238;50.180;9.230;2023-03-14T04:34:45;1.67;;;1.23;;
4450;SDS011;2238;50.180;9.230;2023-03-14T04:37:45;5.27;;;1.83;;
4450;SDS011;2238;50.180;9.230;2023-03-14T04:40:48;2.37;;;1.80;;
4450;SDS011;2238;50.180;9.230;2023-03-14T04:43:49;4.37;;;1.57;;
4450;SDS011;2238;50.180;9.230;2023-03-14T04:46:50;4.63;;;2.07;;
4450;SDS011;2238;50.180;9.230;2023-03-14T04:49:51;5.77;;;1.90;;
4450;SDS011;2238;50.180;9.230;2023-03-14T04:52:51;4.83;;;1.27;;
4450;SDS011;2238;50.180;9.230;2023-03-14T04:55:53;2.20;;;1.77;;
4450;SDS011;2238;50.180;9.230;2023-03-14T04:58:54;1.63;;;1.20;;
4450;SDS011;2238;50.180;9.230;2023-03-14T05:01:55;3.40;;;2.10;;
4450;SDS011;2238;50.180;9.230;2023-03-14T05:04:56;4.23;;;1.63;;
4450;SDS011;2238;50.180;9.230;2023-03-14T05:07:56;2.37;;;1.30;;
4450;SDS011;2238;50.180;9.230;2023-03-14T05:10:57;2.20;;;1.43;;
4450;SDS011;2238;50.180;9.230;2023-03-14T05:13:57;2.03;;;1.50;;
4450;SDS011;2238;50.180;9.230;2023-03-14T05:16:58;1.30;;;1.20;;
4450;SDS011;2238;50.180;9.230;2023-03-14T05:19:59;2.40;;;1.30;;
4450;SDS011;2238;50.180;9.230;2023-03-14T05:22:59;2.10;;;1.77;;
4450;SDS011;2238;50.180;9.230;2023-03-14T05:26:00;2.17;;;1.57;;
4450;SDS011;2238;50.180;9.230;2023-03-14T05:29:00;2.80;;;1.40;;
4450;SDS011;2238;50.180;9.230;2023-03-14T05:32:01;2.97;;;1.40;;
4450;SDS011;2238;50.180;9.230;2023-03-14T05:35:01;2.30;;;1.40;;
4450;SDS011;2238;50.180;9.230;2023-03-14T05:38:02;2.07;;;1.50;;
4450;SDS011;2238;50.180;9.230;2023-03-14T05:41:03;2.10;;;1.23;;
4450;SDS011;2238;50.180;9.230;2023-03-14T05:44:04;1.50;;;1.37;;
4450;SDS011;2238;50.180;9.230;2023-03-14T05:47:04;7.50;;;1.60;;
4450;SDS011;2238;50.180;9.230;2023-03-14T05:50:05;2.13;;;1.27;;
4450;SDS011;2238;50.180;9.230;2023-03-14T05:53:06;1.50;;;1.40;;
4450;SDS011;2238;50.180;9.230;2023-03-14T05:56:06;5.80;;;1.57;;
4450;SDS011;2238;50.180;9.230;2023-03-14T05:59:07;3.03;;;1.63;;
4450;SDS011;2238;50.180;9.230;2023-03-14T06:02:08;3.53;;;2.10;;
4450;SDS011;2238;50.180;9.230;2023-03-14T06:05:09;2.83;;;1.37;;
4450;SDS011;2238;50.180;9.230;2023-03-14T06:08:10;2.00;;;1.73;;
4450;SDS011;2238;50.180;9.230;2023-03-14T06:11:10;2.90;;;1.37;;
4450;SDS011;2238;50.180;9.230;2023-03-14T06:14:11;2.87;;;1.70;;
4450;SDS011;2238;50.180;9.230;2023-03-14T06:17:11;4.33;;;1.40;;
4450;SDS011;2238;50.180;9.230;2023-03-14T06:20:12;5.53;;;1.50;;
4450;SDS011;2238;50.180;9.230;2023-03-14T06:23:13;3.90;;;1.53;;
4450;SDS011;2238;50.180;9.230;2023-03-14T06:26:13;1.20;;;1.10;;
4450;SDS011;2238;50.180;9.230;2023-03-14T06:29:14;1.50;;;1.40;;
4450;SDS011;2238;50.180;9.230;2023-03-14T06:32:14;1.57;;;1.30;;
4450;SDS011;2238;50.180;9.230;2023-03-14T06:35:15;1.73;;;1.40;;
4450;SDS011;2238;50.180;9.230;2023-03-14T06:38:16;3.03;;;1.30;;
4450;SDS011;2238;50.180;9.230;2023-03-14T06:41:16;7.07;;;1.67;;
4450;SDS011;2238;50.180;9.230;2023-03-14T06:44:17;5.73;;;1.60;;
4450;SDS011;2238;50.180;9.230;2023-03-14T06:47:18;1.83;;;1.63;;
4450;SDS011;2238;50.180;9.230;2023-03-14T06:50:18;2.10;;;1.57;;
4450;SDS011;2238;50.180;9.230;2023-03-14T06:53:19;3.13;;;2.00;;
4450;SDS011;2238;50.180;9.230;2023-03-14T06:56:19;2.30;;;1.87;;
4450;SDS011;2238;50.180;9.230;2023-03-14T06:59:20;1.40;;;1.30;;
4450;SDS011;2238;50.180;9.230;2023-03-14T07:02:21;1.83;;;1.73;;
4450;SDS011;2238;50.180;9.230;2023-03-14T07:05:23;2.07;;;1.20;;
4450;SDS011;2238;50.180;9.230;2023-03-14T07:08:23;2.53;;;1.50;;
4450;SDS011;2238;50.180;9.230;2023-03-14T07:11:24;2.60;;;1.40;;
4450;SDS011;2238;50.180;9.230;2023-03-14T07:14:25;1.37;;;1.10;;
4450;SDS011;2238;50.180;9.230;2023-03-14T07:17:25;2.73;;;1.60;;
4450;SDS011;2238;50.180;9.230;2023-03-14T07:20:26;1.40;;;1.30;;
4450;SDS011;2238;50.180;9.230;2023-03-14T07:23:26;1.60;;;1.50;;
4450;SDS011;2238;50.180;9.230;2023-03-14T07:26:27;3.37;;;1.37;;
4450;SDS011;2238;50.180;9.230;2023-03-14T07:29:28;3.53;;;1.10;;
4450;SDS011;2238;50.180;9.230;2023-03-14T07:32:28;5.73;;;1.63;;
4450;SDS011;2238;50.180;9.230;2023-03-14T07:35:29;1.00;;;1.00;;
4450;SDS011;2238;50.180;9.230;2023-03-14T07:38:29;4.40;;;1.30;;
4450;SDS011;2238;50.180;9.230;2023-03-14T07:41:30;2.33;;;1.60;;
4450;SDS011;2238;50.180;9.230;2023-03-14T07:44:32;1.73;;;1.30;;
4450;SDS011;2238;50.180;9.230;2023-03-14T07:47:33;1.90;;;1.30;;
4450;SDS011;2238;50.180;9.230;2023-03-14T07:50:33;1.47;;;1.00;;
4450;SDS011;2238;50.180;9.230;2023-03-14T07:53:34;2.03;;;1.23;;
4450;SDS011;2238;50.180;9.230;2023-03-14T07:56:34;2.60;;;1.43;;
4450;SDS011;2238;50.180;9.230;2023-03-14T07:59:35;2.70;;;1.30;;
4450;SDS011;2238;50.180;9.230;2023-03-14T08:02:35;3.00;;;1.60;;
4450;SDS011;2238;50.180;9.230;2023-03-14T08:05:36;3.67;;;1.37;;
4450;SDS011;2238;50.180;9.230;2023-03-14T08:08:37;1.77;;;1.17;;
4450;SDS011;2238;50.180;9.230;2023-03-14T08:11:38;1.50;;;0.80;;
4450;SDS011;2238;50.180;9.230;2023-03-14T08:14:39;3.80;;;2.03;;
4450;SDS011;2238;50.180;9.230;2023-03-14T08:17:39;2.53;;;1.33;;
4450;SDS011;2238;50.180;9.230;2023-03-14T08:20:40;3.80;;;1.07;;
4450;SDS011;2238;50.180;9.230;2023-03-14T08:23:40;2.73;;;0.90;;
4450;SDS011;2238;50.180;9.230;2023-03-14T08:26:41;2.53;;;1.03;;
4450;SDS011;2238;50.180;9.230;2023-03-14T08:29:42;2.43;;;1.20;;
4450;SDS011;2238;50.180;9.230;2023-03-14T08:32:43;3.30;;;1.57;;
4450;SDS011;2238;50.180;9.230;2023-03-14T08:35:44;2.70;;;1.50;;
4450;SDS011;2238;50.180;9.230;2023-03-14T08:38:44;1.80;;;1.03;;
4450;SDS011;2238;50.180;9.230;2023-03-14T08:41:45;2.60;;;1.30;;
4450;SDS011;2238;50.180;9.230;2023-03-14T08:44:45;1.23;;;1.10;;
4450;SDS011;2238;50.180;9.230;2023-03-14T08:47:46;3.87;;;2.13;;
4450;SDS011;2238;50.180;9.230;2023-03-14T08:50:47;1.27;;;1.20;;
4450;SDS011;2238;50.180;9.230;2023-03-14T08:53:47;1.70;;;1.27;;
4450;SDS011;2238;50.180;9.230;2023-03-14T08:56:48;1.50;;;1.40;;
4450;SDS011;2238;50.180;9.230;2023-03-14T08:59:49;2.00;;;1.67;;
4450;SDS011;2238;50.180;9.230;2023-03-14T09:02:49;2.70;;;1.50;;
4450;SDS011;2238;50.180;9.230;2023-03-14T09:05:51;1.73;;;1.20;;
4450;SDS011;2238;50.180;9.230;2023-03-14T09:08:52;1.53;;;1.40;;
4450;SDS011;2238;50.180;9.230;2023-03-14T09:11:52;1.90;;;1.17;;
4450;SDS011;2238;50.180;9.230;2023-03-14T09:14:53;0.90;;;0.90;;
4450;SDS011;2238;50.180;9.230;2023-03-14T09:17:54;1.33;;;1.23;;
4450;SDS011;2238;50.180;9.230;2023-03-14T09:20:55;1.23;;;1.23;;
4450;SDS011;2238;50.180;9.230;2023-03-14T09:23:56;1.70;;;1.10;;
4450;SDS011;2238;50.180;9.230;2023-03-14T09:26:56;1.40;;;1.30;;
4450;SDS011;2238;50.180;9.230;2023-03-14T09:29:57;7.10;;;1.93;;
4450;SDS011;2238;50.180;9.230;2023-03-14T09:32:57;1.47;;;1.27;;
4450;SDS011;2238;50.180;9.230;2023-03-14T09:35:58;1.87;;;1.70;;
4450;SDS011;2238;50.180;9.230;2023-03-14T09:38:59;1.03;;;0.90;;
4450;SDS011;2238;50.180;9.230;2023-03-14T09:42:01;1.23;;;1.23;;
4450;SDS011;2238;50.180;9.230;2023-03-14T09:45:05;1.50;;;1.37;;
4450;SDS011;2238;50.180;9.230;2023-03-14T09:48:14;1.03;;;1.03;;
4450;SDS011;2238;50.180;9.230;2023-03-14T09:51:35;1.90;;;1.20;;
4450;SDS011;2238;50.180;9.230;2023-03-14T09:54:38;2.00;;;1.33;;
4450;SDS011;2238;50.180;9.230;2023-03-14T09:57:42;1.20;;;1.10;;
4450;SDS011;2238;50.180;9.230;2023-03-14T10:00:47;1.53;;;1.43;;
4450;SDS011;2238;50.180;9.230;2023-03-14T10:03:56;3.70;;;1.20;;
4450;SDS011;2238;50.180;9.230;2023-03-14T10:07:00;4.73;;;1.20;;
4450;SDS011;2238;50.180;9.230;2023-03-14T10:10:08;1.53;;;1.30;;
4450;SDS011;2238;50.180;9.230;2023-03-14T10:13:17;1.73;;;1.60;;
4450;SDS011;2238;50.180;9.230;2023-03-14T10:16:28;1.20;;;1.10;;
4450;SDS011;2238;50.180;9.230;2023-03-14T10:19:30;1.40;;;1.30;;
4450;SDS011;2238;50.180;9.230;2023-03-14T10:22:32;2.20;;;1.53;;
4450;SDS011;2238;50.180;9.230;2023-03-14T10:25:35;1.90;;;1.43;;
4450;SDS011;2238;50.180;9.230;2023-03-14T10:28:38;1.10;;;1.00;;
4450;SDS011;2238;50.180;9.230;2023-03-14T10:35:24;1.70;;;1.60;;
4450;SDS011;2238;50.180;9.230;2023-03-14T10:38:28;1.50;;;1.40;;
4450;SDS011;2238;50.180;9.230;2023-03-14T10:41:30;1.10;;;1.00;;
4450;SDS011;2238;50.180;9.230;2023-03-14T10:44:33;1.17;;;1.17;;
4450;SDS011;2238;50.180;9.230;2023-03-14T10:47:35;1.10;;;1.10;;
4450;SDS011;2238;50.180;9.230;2023-03-14T10:50:35;1.37;;;1.10;;
4450;SDS011;2238;50.180;9.230;2023-03-14T10:56:55;1.40;;;1.30;;
4450;SDS011;2238;50.180;9.230;2023-03-14T10:59:58;1.50;;;1.40;;
4450;SDS011;2238;50.180;9.230;2023-03-14T11:06:18;1.60;;;1.17;;
4450;SDS011;2238;50.180;9.230;2023-03-14T11:19:31;1.40;;;1.30;;
4450;SDS011;2238;50.180;9.230;2023-03-14T11:25:53;1.03;;;1.03;;
4450;SDS011;2238;50.180;9.230;2023-03-14T11:29:31;1.20;;;1.20;;
4450;SDS011;2238;50.180;9.230;2023-03-14T11:33:03;2.00;;;1.60;;
4450;SDS011;2238;50.180;9.230;2023-03-14T11:36:16;4.00;;;3.57;;
4450;SDS011;2238;50.180;9.230;2023-03-14T11:39:23;2.70;;;2.50;;
4450;SDS011;2238;50.180;9.230;2023-03-14T11:42:26;2.53;;;2.33;;
4450;SDS011;2238;50.180;9.230;2023-03-14T11:45:36;3.27;;;2.47;;
4450;SDS011;2238;50.180;9.230;2023-03-14T11:48:42;2.10;;;2.00;;
4450;SDS011;2238;50.180;9.230;2023-03-14T11:51:52;1.90;;;1.80;;
4450;SDS011;2238;50.180;9.230;2023-03-14T11:55:05;2.43;;;2.30;;
4450;SDS011;2238;50.180;9.230;2023-03-14T11:58:17;2.53;;;2.43;;
4450;SDS011;2238;50.180;9.230;2023-03-14T12:01:44;2.00;;;1.90;;
4450;SDS011;2238;50.180;9.230;2023-03-14T12:08:51;2.67;;;2.13;;
4450;SDS011;2238;50.180;9.230;2023-03-14T12:11:58;2.13;;;2.03;;
4450;SDS011;2238;50.180;9.230;2023-03-14T12:15:03;3.10;;;2.90;;
4450;SDS011;2238;50.180;9.230;2023-03-14T12:18:11;1.67;;;1.67;;
4450;SDS011;2238;50.180;9.230;2023-03-14T12:21:46;2.30;;;2.20;;
4450;SDS011;2238;50.180;9.230;2023-03-14T12:25:00;2.13;;;1.90;;
4450;SDS011;2238;50.180;9.230;2023-03-14T12:34:32;2.80;;;2.60;;
4450;SDS011;2238;50.180;9.230;2023-03-14T12:37:35;2.17;;;2.07;;
4450;SDS011;2238;50.180;9.230;2023-03-14T12:50:38;0.87;;;0.87;;
4450;SDS011;2238;50.180;9.230;2023-03-14T12:53:54;1.23;;;1.13;;
4450;SDS011;2238;50.180;9.230;2023-03-14T13:03:18;1.40;;;1.30;;
4450;SDS011;2238;50.180;9.230;2023-03-14T13:13:11;0.70;;;0.70;;
4450;SDS011;2238;50.180;9.230;2023-03-14T13:16:20;0.80;;;0.80;;
4450;SDS011;2238;50.180;9.230;2023-03-14T13:19:23;2.27;;;0.80;;
4450;SDS011;2238;50.180;9.230;2023-03-14T13:22:30;2.10;;;0.80;;
4450;SDS011;2238;50.180;9.230;2023-03-14T13:25:33;0.70;;;0.70;;
4450;SDS011;2238;50.180;9.230;2023-03-14T13:28:35;0.80;;;0.80;;
4450;SDS011;2238;50.180;9.230;2023-03-14T13:31:36;0.80;;;0.80;;
4450;SDS011;2238;50.180;9.230;2023-03-14T13:34:37;1.10;;;1.10;;
4450;SDS011;2238;50.180;9.230;2023-03-14T13:37:38;1.33;;;1.17;;
4450;SDS011;2238;50.180;9.230;2023-03-14T13:40:39;1.30;;;0.97;;
4450;SDS011;2238;50.180;9.230;2023-03-14T13:43:44;0.90;;;0.90;;
4450;SDS011;2238;50.180;9.230;2023-03-14T13:46:45;1.40;;;0.93;;
4450;SDS011;2238;50.180;9.230;2023-03-14T13:49:46;1.50;;;1.20;;
4450;SDS011;2238;50.180;9.230;2023-03-14T13:52:48;0.93;;;0.93;;
4450;SDS011;2238;50.180;9.230;2023-03-14T13:55:55;1.93;;;1.30;;
4450;SDS011;2238;50.180;9.230;2023-03-14T13:58:57;1.33;;;1.23;;
4450;SDS011;2238;50.180;9.230;2023-03-14T14:01:59;1.70;;;1.33;;
4450;SDS011;2238;50.180;9.230;2023-03-14T14:05:06;1.40;;;1.30;;
4450;SDS011;2238;50.180;9.230;2023-03-14T14:08:11;1.40;;;1.30;;
4450;SDS011;2238;50.180;9.230;2023-03-14T14:11:17;1.20;;;1.20;;
4450;SDS011;2238;50.180;9.230;2023-03-14T14:14:55;1.60;;;1.50;;
4450;SDS011;2238;50.180;9.230;2023-03-14T14:17:57;1.80;;;1.70;;
4450;SDS011;2238;50.180;9.230;2023-03-14T14:21:01;1.60;;;1.50;;
4450;SDS011;2238;50.180;9.230;2023-03-14T14:24:02;1.67;;;1.57;;
4450;SDS011;2238;50.180;9.230;2023-03-14T14:27:15;3.27;;;2.83;;
4450;SDS011;2238;50.180;9.230;2023-03-14T14:33:19;1.70;;;1.60;;
4450;SDS011;2238;50.180;9.230;2023-03-14T14:39:49;2.87;;;2.67;;
4450;SDS011;2238;50.180;9.230;2023-03-14T14:42:53;1.50;;;1.40;;
4450;SDS011;2238;50.180;9.230;2023-03-14T14:45:55;0.90;;;0.90;;
4450;SDS011;2238;50.180;9.230;2023-03-14T14:48:58;1.30;;;1.30;;
4450;SDS011;2238;50.180;9.230;2023-03-14T14:55:19;1.50;;;1.40;;
4450;SDS011;2238;50.180;9.230;2023-03-14T14:58:23;3.43;;;3.13;;
4450;SDS011;2238;50.180;9.230;2023-03-14T15:01:38;2.80;;;2.60;;
4450;SDS011;2238;50.180;9.230;2023-03-14T15:04:41;1.60;;;1.50;;
4450;SDS011;2238;50.180;9.230;2023-03-14T15:07:42;1.37;;;1.37;;
4450;SDS011;2238;50.180;9.230;2023-03-14T15:10:42;1.30;;;1.30;;
4450;SDS011;2238;50.180;9.230;2023-03-14T15:13:43;1.53;;;1.00;;
4450;SDS011;2238;50.180;9.230;2023-03-14T15:16:44;1.50;;;1.40;;
4450;SDS011;2238;50.180;9.230;2023-03-14T15:19:45;3.33;;;3.03;;
4450;SDS011;2238;50.180;9.230;2023-03-14T15:22:46;4.73;;;4.23;;
4450;SDS011;2238;50.180;9.230;2023-03-14T15:25:47;2.30;;;2.10;;
4450;SDS011;2238;50.180;9.230;2023-03-14T15:28:49;2.20;;;1.90;;
4450;SDS011;2238;50.180;9.230;2023-03-14T15:31:51;3.40;;;3.20;;
4450;SDS011;2238;50.180;9.230;2023-03-14T15:34:52;2.47;;;2.27;;
4450;SDS011;2238;50.180;9.230;2023-03-14T15:37:56;3.10;;;2.80;;
4450;SDS011;2238;50.180;9.230;2023-03-14T15:40:56;6.60;;;6.00;;
4450;SDS011;2238;50.180;9.230;2023-03-14T15:43:57;5.83;;;4.80;;
4450;SDS011;2238;50.180;9.230;2023-03-14T15:46:58;3.77;;;3.50;;
4450;SDS011;2238;50.180;9.230;2023-03-14T15:49:58;2.60;;;2.40;;
4450;SDS011;2238;50.180;9.230;2023-03-14T15:52:59;3.90;;;3.60;;
4450;SDS011;2238;50.180;9.230;2023-03-14T15:55:59;3.27;;;2.97;;
4450;SDS011;2238;50.180;9.230;2023-03-14T15:59:00;4.37;;;3.97;;
4450;SDS011;2238;50.180;9.230;2023-03-14T16:02:00;4.10;;;3.80;;
4450;SDS011;2238;50.180;9.230;2023-03-14T16:05:01;4.27;;;3.87;;
4450;SDS011;2238;50.180;9.230;2023-03-14T16:08:01;4.57;;;4.17;;
4450;SDS011;2238;50.180;9.230;2023-03-14T16:11:03;3.93;;;3.60;;
4450;SDS011;2238;50.180;9.230;2023-03-14T16:14:05;3.33;;;3.03;;
4450;SDS011;2238;50.180;9.230;2023-03-14T16:17:05;7.47;;;6.67;;
4450;SDS011;2238;50.180;9.230;2023-03-14T16:20:10;6.00;;;5.30;;
4450;SDS011;2238;50.180;9.230;2023-03-14T16:23:11;3.47;;;3.17;;
4450;SDS011;2238;50.180;9.230;2023-03-14T16:26:13;3.43;;;3.10;;
4450;SDS011;2238;50.180;9.230;2023-03-14T16:29:18;3.20;;;3.00;;
4450;SDS011;2238;50.180;9.230;2023-03-14T16:32:18;5.17;;;3.10;;
4450;SDS011;2238;50.180;9.230;2023-03-14T16:35:19;3.70;;;3.40;;
4450;SDS011;2238;50.180;9.230;2023-03-14T16:38:20;3.20;;;2.90;;
4450;SDS011;2238;50.180;9.230;2023-03-14T16:41:21;2.87;;;2.63;;
4450;SDS011;2238;50.180;9.230;2023-03-14T16:44:22;3.73;;;3.43;;
4450;SDS011;2238;50.180;9.230;2023-03-14T16:47:22;2.87;;;2.67;;
4450;SDS011;2238;50.180;9.230;2023-03-14T16:50:23;3.77;;;3.20;;
4450;SDS011;2238;50.180;9.230;2023-03-14T16:53:24;3.33;;;3.00;;
4450;SDS011;2238;50.180;9.230;2023-03-14T16:56:27;6.90;;;2.40;;
4450;SDS011;2238;50.180;9.230;2023-03-14T16:59:28;3.23;;;2.83;;
4450;SDS011;2238;50.180;9.230;2023-03-14T17:02:29;2.50;;;2.30;;
4450;SDS011;2238;50.180;9.230;2023-03-14T17:05:30;2.60;;;2.40;;
4450;SDS011;2238;50.180;9.230;2023-03-14T17:08:31;2.60;;;2.40;;
4450;SDS011;2238;50.180;9.230;2023-03-14T17:11:33;2.90;;;1.97;;
4450;SDS011;2238;50.180;9.230;2023-03-14T17:14:33;2.07;;;1.87;;
4450;SDS011;2238;50.180;9.230;2023-03-14T17:17:34;2.73;;;2.03;;
4450;SDS011;2238;50.180;9.230;2023-03-14T17:20:35;4.83;;;4.30;;
4450;SDS011;2238;50.180;9.230;2023-03-14T17:23:35;6.60;;;6.00;;
4450;SDS011;2238;50.180;9.230;2023-03-14T17:26:36;4.60;;;4.30;;
4450;SDS011;2238;50.180;9.230;2023-03-14T17:29:37;8.57;;;6.47;;
4450;SDS011;2238;50.180;9.230;2023-03-14T17:32:37;15.17;;;13.73;;
4450;SDS011;2238;50.180;9.230;2023-03-14T17:35:38;10.73;;;9.80;;
4450;SDS011;2238;50.180;9.230;2023-03-14T17:38:38;3.53;;;3.23;;
4450;SDS011;2238;50.180;9.230;2023-03-14T17:41:39;4.00;;;3.27;;
4450;SDS011;2238;50.180;9.230;2023-03-14T17:44:40;2.90;;;2.70;;
4450;SDS011;2238;50.180;9.230;2023-03-14T17:47:40;2.77;;;2.57;;
4450;SDS011;2238;50.180;9.230;2023-03-14T17:50:41;5.60;;;5.10;;
4450;SDS011;2238;50.180;9.230;2023-03-14T17:53:42;3.97;;;3.67;;
4450;SDS011;2238;50.180;9.230;2023-03-14T17:56:42;2.60;;;2.40;;
4450;SDS011;2238;50.180;9.230;2023-03-14T17:59:43;1.40;;;1.30;;
4450;SDS011;2238;50.180;9.230;2023-03-14T18:02:44;2.50;;;2.20;;
4450;SDS011;2238;50.180;9.230;2023-03-14T18:05:44;3.20;;;3.00;;
4450;SDS011;2238;50.180;9.230;2023-03-14T18:08:45;1.23;;;1.13;;
4450;SDS011;2238;50.180;9.230;2023-03-14T18:11:46;1.13;;;1.13;;
4450;SDS011;2238;50.180;9.230;2023-03-14T18:14:47;6.17;;;4.40;;
4450;SDS011;2238;50.180;9.230;2023-03-14T18:17:48;3.63;;;2.07;;
4450;SDS011;2238;50.180;9.230;2023-03-14T18:20:49;1.10;;;1.00;;
4450;SDS011;2238;50.180;9.230;2023-03-14T18:23:52;3.50;;;2.83;;
4450;SDS011;2238;50.180;9.230;2023-03-14T18:26:52;8.27;;;6.40;;
4450;SDS011;2238;50.180;9.230;2023-03-14T18:29:53;7.67;;;6.40;;
4450;SDS011;2238;50.180;9.230;2023-03-14T18:32:54;2.40;;;1.47;;
4450;SDS011;2238;50.180;9.230;2023-03-14T18:35:54;3.80;;;1.90;;
4450;SDS011;2238;50.180;9.230;2023-03-14T18:38:55;1.97;;;1.80;;
4450;SDS011;2238;50.180;9.230;2023-03-14T18:41:55;2.30;;;2.00;;
4450;SDS011;2238;50.180;9.230;2023-03-14T18:44:56;2.70;;;2.50;;
4450;SDS011;2238;50.180;9.230;2023-03-14T18:47:56;8.57;;;6.20;;
4450;SDS011;2238;50.180;9.230;2023-03-14T18:50:57;1.90;;;1.80;;
4450;SDS011;2238;50.180;9.230;2023-03-14T18:53:58;2.30;;;2.00;;
4450;SDS011;2238;50.180;9.230;2023-03-14T18:56:59;2.13;;;1.80;;
4450;SDS011;2238;50.180;9.230;2023-03-14T19:00:00;2.80;;;2.67;;
4450;SDS011;2238;50.180;9.230;2023-03-14T19:03:01;3.67;;;2.67;;
4450;SDS011;2238;50.180;9.230;2023-03-14T19:06:06;4.53;;;4.17;;
4450;SDS011;2238;50.180;9.230;2023-03-14T19:09:08;3.20;;;2.90;;
4450;SDS011;2238;50.180;9.230;2023-03-14T19:12:13;4.83;;;3.60;;
4450;SDS011;2238;50.180;9.230;2023-03-14T19:15:15;3.60;;;2.70;;
4450;SDS011;2238;50.180;9.230;2023-03-14T19:18:16;3.50;;;3.20;;
4450;SDS011;2238;50.180;9.230;2023-03-14T19:21:27;3.27;;;2.33;;
4450;SDS011;2238;50.180;9.230;2023-03-14T19:24:28;7.03;;;3.17;;
4450;SDS011;2238;50.180;9.230;2023-03-14T19:27:29;4.53;;;1.70;;
4450;SDS011;2238;50.180;9.230;2023-03-14T19:30:29;4.70;;;2.20;;
4450;SDS011;2238;50.180;9.230;2023-03-14T19:33:30;2.70;;;2.10;;
4450;SDS011;2238;50.180;9.230;2023-03-14T19:36:32;2.60;;;2.40;;
4450;SDS011;2238;50.180;9.230;2023-03-14T19:39:35;3.20;;;2.90;;
4450;SDS011;2238;50.180;9.230;2023-03-14T19:42:35;5.87;;;5.27;;
4450;SDS011;2238;50.180;9.230;2023-03-14T19:45:36;7.73;;;5.47;;
4450;SDS011;2238;50.180;9.230;2023-03-14T19:48:36;7.83;;;7.13;;
4450;SDS011;2238;50.180;9.230;2023-03-14T19:51:37;12.93;;;10.03;;
4450;SDS011;2238;50.180;9.230;2023-03-14T19:54:37;9.13;;;6.73;;
4450;SDS011;2238;50.180;9.230;2023-03-14T19:57:40;7.37;;;6.67;;
4450;SDS011;2238;50.180;9.230;2023-03-14T20:00:40;8.63;;;7.73;;
4450;SDS011;2238;50.180;9.230;2023-03-14T20:03:44;13.83;;;8.40;;
4450;SDS011;2238;50.180;9.230;2023-03-14T20:06:45;7.93;;;6.57;;
4450;SDS011;2238;50.180;9.230;2023-03-14T20:09:45;7.63;;;6.40;;